Weather at Bajura Airport

Public forecast

Using degrees Celsius for public forecast. Weather courtesy of forecast.io.

Closest aviation weather report (METAR) to Bajura Airport

Closest report is Pantnagar Airport, 118.4 nm (219.2 km) WSW. Retrieved 2020/09/19 07:00 UTC (2 hours ago):

VIPT 190700Z 09004KT 4000 BR FEW030 BKN100 31/27 Q1005

Closest aviation forecast (TAF) to Bajura Airport

Forecast is more than 12 hours old.

Closest forecast is Pantnagar Airport, 118.4 nm (219.2 km) WSW. Retrieved 2016/07/10 06:00 UTC (4 years ago):

TAF VIPT 100500Z 1006/1015 24005KT 4000 HZ FEW040 SCT100 TEMPO 1010/1015 2000 -TSRA SCT030 FEW035CB BKN090